Isil'Kul, Russia
Current Conditions -  °F | °C
As of 5:30 PM on Monday 26 Jan 2015 (Local Time) from UACP Reporting Station
Blowing Snow Blowing Snow  
Wind Chill: -32°   Ceiling: Unl
Heat Index: -9°   Visibility: 6mi
Dew Point: -13°   Wind: 16mph
Humidity: 84%   Direction: 240°WSW
Pressure: 30.65"   Gusts: NA
Location:  54.9°N, 71.25°E
Report Text: UACP 261130Z 24007MPS 9999 DRSN NSC M23/M25 Q1038 R23/8/99//NOSIG RMK QFE765/1021
Loading
Personal Weather Stations






























Interactive Weather Map New forecast layout! Learn more

10-Day Weather Forecast

Advertisements
Track Severe Weather on mobile